Time;durP1;ratioP1;P1;durP2;ratioP2;P2;SDS_P1;SDS_P2;PMS_P1;PMS_P2;Temp;Humidity;BMP_temperature;BMP_pressure;BME280_temperature;BME280_humidity;BME280_pressure;Samples;Min_cycle;Max_cycle;Signal;HPM_P1;HPM_P2
2023/12/27 01:36:11;;;;;;;1999.90;999.90;;;;;;;;;;4992956;28;20733;-68
2023/12/27 01:38:56;;;;;;;1999.90;999.90;;;;;;;;;;4991612;28;20714;-68
2023/12/27 01:41:41;;;;;;;1999.90;999.90;;;;;;;;;;4989998;28;20211;-67
2023/12/27 01:44:26;;;;;;;1999.90;999.90;;;;;;;;;;4997230;28;20806;-67
2023/12/27 01:47:13;;;;;;;1999.90;999.90;;;;;;;;;;4983790;28;20579;-68
2023/12/27 01:49:58;;;;;;;1999.90;999.90;;;;;;;;;;4999091;28;20210;-69
2023/12/27 01:52:44;;;;;;;1999.90;999.90;;;;;;;;;;4995379;28;20706;-68
2023/12/27 01:55:29;;;;;;;1999.90;999.90;;;;;;;;;;4994291;28;20617;-67
2023/12/27 01:58:14;;;;;;;1999.90;999.90;;;;;;;;;;4992567;28;20212;-66
2023/12/27 02:00:59;;;;;;;1999.90;999.90;;;;;;;;;;5000468;28;20210;-68
2023/12/27 02:03:44;;;;;;;1999.90;999.90;;;;;;;;;;4982468;28;20574;-68
2023/12/27 02:06:30;;;;;;;1999.90;999.90;;;;;;;;;;4991648;28;20701;-67
2023/12/27 02:09:17;;;;;;;1999.90;999.90;;;;;;;;;;4984302;28;20211;-68
2023/12/27 02:12:02;;;;;;;1999.90;999.90;;;;;;;;;;4998243;28;20219;-67
2023/12/27 02:14:47;;;;;;;1999.90;999.90;;;;;;;;;;4997675;28;20227;-69
2023/12/27 02:17:33;;;;;;;1999.90;999.90;;;;;;;;;;4985837;28;20599;-68
2023/12/27 02:20:18;;;;;;;1999.90;999.90;;;;;;;;;;4997875;28;20316;-69
2023/12/27 02:23:06;;;;;;;1999.90;999.90;;;;;;;;;;4975795;28;20411;-68
2023/12/27 02:25:52;;;;;;;1999.90;999.90;;;;;;;;;;4987562;28;20222;-68
2023/12/27 02:28:37;;;;;;;1999.90;999.90;;;;;;;;;;4990667;28;20214;-68
2023/12/27 02:31:22;;;;;;;1999.90;999.90;;;;;;;;;;4995969;28;20327;-69
2023/12/27 02:34:07;;;;;;;1999.90;999.90;;;;;;;;;;4995422;28;20758;-69
2023/12/27 02:36:52;;;;;;;1999.90;999.90;;;;;;;;;;4995723;28;20303;-70
2023/12/27 02:39:37;;;;;;;1999.90;999.90;;;;;;;;;;5001681;28;20210;-68
2023/12/27 02:42:23;;;;;;;1999.90;999.90;;;;;;;;;;4988072;28;20203;-69
2023/12/27 02:45:08;;;;;;;1999.90;999.90;;;;;;;;;;4995806;28;20310;-69
2023/12/27 02:47:53;;;;;;;1999.90;999.90;;;;;;;;;;5003092;28;20486;-70
2023/12/27 02:50:38;;;;;;;1999.90;999.90;;;;;;;;;;4992411;28;20781;-69
2023/12/27 02:53:23;;;;;;;1999.90;999.90;;;;;;;;;;4979767;28;20211;-69
2023/12/27 02:56:09;;;;;;;1999.90;999.90;;;;;;;;;;4995372;28;20603;-70
2023/12/27 02:58:55;;;;;;;1999.90;999.90;;;;;;;;;;5003323;28;20226;-69
2023/12/27 03:01:40;;;;;;;1999.90;999.90;;;;;;;;;;4989733;28;20216;-69
2023/12/27 03:04:25;;;;;;;1999.90;999.90;;;;;;;;;;4991623;28;20226;-69
2023/12/27 03:07:11;;;;;;;1999.90;999.90;;;;;;;;;;4995118;28;20211;-68
2023/12/27 03:09:57;;;;;;;1999.90;999.90;;;;;;;;;;5000027;28;20218;-69
2023/12/27 03:12:42;;;;;;;1999.90;999.90;;;;;;;;;;4995951;28;20207;-69
2023/12/27 03:15:28;;;;;;;1999.90;999.90;;;;;;;;;;4991902;28;20698;-70
2023/12/27 03:18:13;;;;;;;1999.90;999.90;;;;;;;;;;4982268;28;20220;-69
2023/12/27 03:20:58;;;;;;;1999.90;999.90;;;;;;;;;;4975618;28;20614;-69
2023/12/27 03:23:43;;;;;;;1999.90;999.90;;;;;;;;;;4975398;28;20306;-69
2023/12/27 03:26:28;;;;;;;1999.90;999.90;;;;;;;;;;4975454;28;20208;-69
2023/12/27 03:29:13;;;;;;;1999.90;999.90;;;;;;;;;;4981605;28;20227;-69
2023/12/27 03:31:59;;;;;;;1999.90;999.90;;;;;;;;;;4994155;28;20587;-69
2023/12/27 03:34:44;;;;;;;1999.90;999.90;;;;;;;;;;4989246;28;20239;-69
2023/12/27 03:37:29;;;;;;;1999.90;999.90;;;;;;;;;;4998686;28;20731;-68
2023/12/27 03:40:13;;;;;;;1999.90;999.90;;;;;;;;;;4977981;28;20207;-69
2023/12/27 03:42:58;;;;;;;1999.90;999.90;;;;;;;;;;4974822;28;20208;-69
2023/12/27 03:45:45;;;;;;;1999.90;999.90;;;;;;;;;;4975163;28;20610;-69
2023/12/27 03:48:31;;;;;;;1999.90;999.90;;;;;;;;;;4991206;28;20332;-70
2023/12/27 03:51:16;;;;;;;1999.90;999.90;;;;;;;;;;4987230;28;20215;-70
2023/12/27 03:54:00;;;;;;;1999.90;999.90;;;;;;;;;;4988302;28;20929;-70
2023/12/27 03:56:45;;;;;;;1999.90;999.90;;;;;;;;;;4988979;28;20315;-70
2023/12/27 03:59:30;;;;;;;1999.90;999.90;;;;;;;;;;4994491;28;20203;-70
2023/12/27 04:02:15;;;;;;;1999.90;999.90;;;;;;;;;;5002196;28;20281;-70
2023/12/27 04:05:01;;;;;;;1999.90;999.90;;;;;;;;;;5010386;28;20234;-70
2023/12/27 04:07:46;;;;;;;1999.90;999.90;;;;;;;;;;5014116;28;20253;-70
2023/12/27 04:10:32;;;;;;;1999.90;999.90;;;;;;;;;;5013773;28;20342;-70
2023/12/27 04:13:18;;;;;;;1999.90;999.90;;;;;;;;;;5013743;28;20285;-70
2023/12/27 04:16:03;;;;;;;1999.90;999.90;;;;;;;;;;5013888;28;20783;-71
2023/12/27 04:18:48;;;;;;;1999.90;999.90;;;;;;;;;;5012473;28;20776;-69
2023/12/27 04:21:34;;;;;;;1999.90;999.90;;;;;;;;;;5013656;28;20769;-69
2023/12/27 04:24:19;;;;;;;1999.90;999.90;;;;;;;;;;4999876;28;20227;-70
2023/12/27 04:27:04;;;;;;;1999.90;999.90;;;;;;;;;;4993916;28;20208;-68
2023/12/27 04:29:50;;;;;;;1999.90;999.90;;;;;;;;;;4994015;28;20332;-70
2023/12/27 04:32:34;;;;;;;1999.90;999.90;;;;;;;;;;4993806;28;20271;-70
2023/12/27 04:35:19;;;;;;;1999.90;999.90;;;;;;;;;;4993802;28;20727;-70
2023/12/27 04:38:06;;;;;;;1999.90;999.90;;;;;;;;;;4993616;28;20362;-70
2023/12/27 04:40:51;;;;;;;1999.90;999.90;;;;;;;;;;4993583;28;20212;-70
2023/12/27 04:43:35;;;;;;;1999.90;999.90;;;;;;;;;;4973077;28;20313;-70
2023/12/27 04:46:20;;;;;;;1999.90;999.90;;;;;;;;;;4983696;28;20293;-70
2023/12/27 04:49:05;;;;;;;1999.90;999.90;;;;;;;;;;4995547;28;20219;-70
2023/12/27 04:51:51;;;;;;;1999.90;999.90;;;;;;;;;;4992469;28;20207;-70
2023/12/27 04:54:37;;;;;;;1999.90;999.90;;;;;;;;;;4997621;28;20607;-70
2023/12/27 04:57:22;;;;;;;1999.90;999.90;;;;;;;;;;5001734;28;20326;-70
2023/12/27 05:00:07;;;;;;;1999.90;999.90;;;;;;;;;;5009603;28;20214;-70
2023/12/27 05:02:52;;;;;;;1999.90;999.90;;;;;;;;;;4995934;28;20292;-70
2023/12/27 05:05:37;;;;;;;1999.90;999.90;;;;;;;;;;4975808;28;20219;-70
2023/12/27 05:08:22;;;;;;;1999.90;999.90;;;;;;;;;;5002924;28;20891;-70
2023/12/27 05:11:12;;;;;;;1999.90;999.90;;;;;;;;;;5012820;28;20258;-70
2023/12/27 05:13:57;;;;;;;1999.90;999.90;;;;;;;;;;5012527;28;20230;-70
2023/12/27 05:16:42;;;;;;;1999.90;999.90;;;;;;;;;;5012902;28;20293;-70
2023/12/27 05:19:27;;;;;;;1999.90;999.90;;;;;;;;;;5012611;28;20803;-70
2023/12/27 05:22:11;;;;;;;1999.90;999.90;;;;;;;;;;5011371;28;20412;-70
2023/12/27 05:24:56;;;;;;;1999.90;999.90;;;;;;;;;;5012857;28;20232;-70
2023/12/27 05:27:43;;;;;;;1999.90;999.90;;;;;;;;;;5012647;28;20198;-70
2023/12/27 05:30:28;;;;;;;1999.90;999.90;;;;;;;;;;5012363;28;20292;-70
2023/12/27 05:33:13;;;;;;;1999.90;999.90;;;;;;;;;;5012339;28;20213;-70
2023/12/27 05:35:58;;;;;;;1999.90;999.90;;;;;;;;;;5012375;28;20602;-70
2023/12/27 05:38:42;;;;;;;1999.90;999.90;;;;;;;;;;5012193;28;20222;-70
2023/12/27 05:41:27;;;;;;;1999.90;999.90;;;;;;;;;;5012426;28;20258;-70
2023/12/27 05:44:13;;;;;;;1999.90;999.90;;;;;;;;;;5012210;28;20697;-70
2023/12/27 05:47:00;;;;;;;1999.90;999.90;;;;;;;;;;5011064;28;20459;-70
2023/12/27 05:49:45;;;;;;;1999.90;999.90;;;;;;;;;;5012345;28;20207;-70
2023/12/27 05:52:30;;;;;;;1999.90;999.90;;;;;;;;;;5012070;28;20214;-70
2023/12/27 05:55:15;;;;;;;1999.90;999.90;;;;;;;;;;5011922;28;20235;-70
2023/12/27 05:58:00;;;;;;;1999.90;999.90;;;;;;;;;;5012020;28;20346;-70
2023/12/27 06:00:47;;;;;;;1999.90;999.90;;;;;;;;;;5012277;28;20291;-70
2023/12/27 06:03:32;;;;;;;1999.90;999.90;;;;;;;;;;5011742;28;20211;-70
2023/12/27 06:06:17;;;;;;;1999.90;999.90;;;;;;;;;;5011881;28;20202;-70
2023/12/27 06:09:02;;;;;;;1999.90;999.90;;;;;;;;;;5012174;28;20205;-70
2023/12/27 06:11:46;;;;;;;1999.90;999.90;;;;;;;;;;5012128;28;20231;-70
2023/12/27 06:14:31;;;;;;;1999.90;999.90;;;;;;;;;;5011831;28;20302;-70
2023/12/27 06:17:17;;;;;;;1999.90;999.90;;;;;;;;;;5011883;28;20235;-70
2023/12/27 06:20:04;;;;;;;1999.90;999.90;;;;;;;;;;5011979;28;20211;-70
2023/12/27 06:22:48;;;;;;;1999.90;999.90;;;;;;;;;;5011783;28;20202;-70
2023/12/27 06:25:33;;;;;;;1999.90;999.90;;;;;;;;;;5011885;28;20727;-70
2023/12/27 06:28:18;;;;;;;1999.90;999.90;;;;;;;;;;5011941;28;20253;-70
2023/12/27 06:31:03;;;;;;;1999.90;999.90;;;;;;;;;;5011806;28;20206;-70
2023/12/27 06:33:49;;;;;;;1999.90;999.90;;;;;;;;;;5011457;28;20231;-70
2023/12/27 06:36:34;;;;;;;1999.90;999.90;;;;;;;;;;5012033;28;20562;-70
2023/12/27 06:39:19;;;;;;;1999.90;999.90;;;;;;;;;;5011852;28;20200;-70
2023/12/27 06:42:04;;;;;;;1999.90;999.90;;;;;;;;;;5011480;28;20203;-70
2023/12/27 06:44:50;;;;;;;1999.90;999.90;;;;;;;;;;5011856;28;20238;-70
2023/12/27 06:47:35;;;;;;;1999.90;999.90;;;;;;;;;;5003501;28;20240;-70
2023/12/27 06:50:21;;;;;;;1999.90;999.90;;;;;;;;;;4994557;28;20295;-71
2023/12/27 06:53:06;;;;;;;1999.90;999.90;;;;;;;;;;4991024;28;20218;-69
2023/12/27 06:55:51;;;;;;;1999.90;999.90;;;;;;;;;;4989195;28;20328;-69
2023/12/27 06:58:36;;;;;;;1999.90;999.90;;;;;;;;;;4992319;28;20233;-70
2023/12/27 07:01:21;;;;;;;1999.90;999.90;;;;;;;;;;4991933;28;20256;-70
2023/12/27 07:04:07;;;;;;;1999.90;999.90;;;;;;;;;;4991533;28;20248;-70
2023/12/27 07:06:53;;;;;;;1999.90;999.90;;;;;;;;;;4995136;28;20224;-70
2023/12/27 07:09:38;;;;;;;1999.90;999.90;;;;;;;;;;4994193;28;20399;-69
2023/12/27 07:12:24;;;;;;;1999.90;999.90;;;;;;;;;;4994565;28;20219;-69
2023/12/27 07:15:10;;;;;;;1999.90;999.90;;;;;;;;;;4984438;28;20420;-69
2023/12/27 07:17:55;;;;;;;1999.90;999.90;;;;;;;;;;4996557;28;20226;-69
2023/12/27 07:20:40;;;;;;;1999.90;999.90;;;;;;;;;;5014241;28;20687;-70
2023/12/27 07:23:26;;;;;;;1999.90;999.90;;;;;;;;;;4985515;28;20304;-70
2023/12/27 07:26:12;;;;;;;1999.90;999.90;;;;;;;;;;4995166;28;20218;-70
2023/12/27 07:28:57;;;;;;;1999.90;999.90;;;;;;;;;;4998229;28;20338;-70
2023/12/27 07:31:42;;;;;;;1999.90;999.90;;;;;;;;;;4987619;28;20211;-70
2023/12/27 07:34:26;;;;;;;1999.90;999.90;;;;;;;;;;4994333;28;20322;-71
2023/12/27 07:37:11;;;;;;;1999.90;999.90;;;;;;;;;;4994856;28;20804;-70
2023/12/27 07:39:58;;;;;;;1999.90;999.90;;;;;;;;;;4994206;28;20235;-70
2023/12/27 07:42:43;;;;;;;1999.90;999.90;;;;;;;;;;4994137;28;20207;-70
2023/12/27 07:45:28;;;;;;;1999.90;999.90;;;;;;;;;;4994603;28;20282;-70
2023/12/27 07:48:13;;;;;;;1999.90;999.90;;;;;;;;;;5001408;28;20579;-70
2023/12/27 07:50:58;;;;;;;1999.90;999.90;;;;;;;;;;4986442;28;20645;-70
2023/12/27 07:53:42;;;;;;;1999.90;999.90;;;;;;;;;;4996240;28;20217;-70
2023/12/27 07:56:29;;;;;;;1999.90;999.90;;;;;;;;;;4980928;28;20331;-69
2023/12/27 07:59:14;;;;;;;1999.90;999.90;;;;;;;;;;4997801;28;20781;-70
2023/12/27 08:01:59;;;;;;;1999.90;999.90;;;;;;;;;;4981689;28;20219;-68
2023/12/27 08:04:45;;;;;;;1999.90;999.90;;;;;;;;;;4993500;28;20223;-69
2023/12/27 08:07:30;;;;;;;1999.90;999.90;;;;;;;;;;4989729;28;20214;-69
2023/12/27 08:10:15;;;;;;;1999.90;999.90;;;;;;;;;;4999391;28;20222;-70
2023/12/27 08:13:02;;;;;;;1999.90;999.90;;;;;;;;;;4998587;28;20216;-69
2023/12/27 08:15:47;;;;;;;1999.90;999.90;;;;;;;;;;4997896;28;20236;-70
2023/12/27 08:18:32;;;;;;;1999.90;999.90;;;;;;;;;;4997717;28;20430;-69
2023/12/27 08:21:17;;;;;;;1999.90;999.90;;;;;;;;;;4994995;28;20334;-69
2023/12/27 08:24:02;;;;;;;1999.90;999.90;;;;;;;;;;4990672;28;20233;-70
2023/12/27 08:26:47;;;;;;;1999.90;999.90;;;;;;;;;;4995084;28;20580;-70
2023/12/27 08:29:33;;;;;;;1999.90;999.90;;;;;;;;;;4994527;28;20208;-69
2023/12/27 08:32:18;;;;;;;1999.90;999.90;;;;;;;;;;4992701;28;20237;-67
2023/12/27 08:35:03;;;;;;;1999.90;999.90;;;;;;;;;;4997591;28;20737;-69
2023/12/27 08:37:49;;;;;;;1999.90;999.90;;;;;;;;;;4999251;28;20216;-69
2023/12/27 08:40:33;;;;;;;1999.90;999.90;;;;;;;;;;4995940;28;20210;-69
2023/12/27 08:43:18;;;;;;;1999.90;999.90;;;;;;;;;;5004779;28;20211;-68
2023/12/27 08:46:08;;;;;;;1999.90;999.90;;;;;;;;;;4997021;28;20388;-69
2023/12/27 08:48:53;;;;;;;1999.90;999.90;;;;;;;;;;4992052;28;20208;-71
2023/12/27 08:51:38;;;;;;;1999.90;999.90;;;;;;;;;;4996095;28;20625;-69
2023/12/27 08:54:23;;;;;;;1999.90;999.90;;;;;;;;;;5001603;28;20228;-69
2023/12/27 08:57:08;;;;;;;1999.90;999.90;;;;;;;;;;4994324;28;20215;-69
2023/12/27 08:59:53;;;;;;;1999.90;999.90;;;;;;;;;;4998037;28;20592;-67
2023/12/27 09:02:39;;;;;;;1999.90;999.90;;;;;;;;;;5003113;28;20220;-69
2023/12/27 09:05:24;;;;;;;1999.90;999.90;;;;;;;;;;4992136;28;20240;-67
2023/12/27 09:08:09;;;;;;;1999.90;999.90;;;;;;;;;;4993071;28;20262;-69
2023/12/27 09:10:54;;;;;;;1999.90;999.90;;;;;;;;;;4998431;28;20707;-69
2023/12/27 09:13:39;;;;;;;1999.90;999.90;;;;;;;;;;4999550;28;20208;-69
2023/12/27 09:16:24;;;;;;;1999.90;999.90;;;;;;;;;;4991265;28;20211;-68
2023/12/27 09:19:11;;;;;;;1999.90;999.90;;;;;;;;;;5000040;28;20716;-69
2023/12/27 09:21:56;;;;;;;1999.90;999.90;;;;;;;;;;4998860;28;20218;-69
2023/12/27 09:24:42;;;;;;;1999.90;999.90;;;;;;;;;;5001183;28;20228;-68
2023/12/27 09:27:27;;;;;;;1999.90;999.90;;;;;;;;;;4999704;28;20335;-70
2023/12/27 09:30:13;;;;;;;1999.90;999.90;;;;;;;;;;4999164;28;20691;-69
2023/12/27 09:32:58;;;;;;;1999.90;999.90;;;;;;;;;;5003186;28;20211;-67
2023/12/27 09:35:44;;;;;;;1999.90;999.90;;;;;;;;;;4996073;28;20255;-69
2023/12/27 09:38:29;;;;;;;1999.90;999.90;;;;;;;;;;4995798;28;20220;-68
2023/12/27 09:41:14;;;;;;;1999.90;999.90;;;;;;;;;;5006836;28;20232;-69
2023/12/27 09:44:00;;;;;;;1999.90;999.90;;;;;;;;;;4988407;28;20244;-69
2023/12/27 09:46:45;;;;;;;1999.90;999.90;;;;;;;;;;4988494;28;20461;-69
2023/12/27 09:49:31;;;;;;;1999.90;999.90;;;;;;;;;;4995924;28;20210;-69
2023/12/27 09:52:18;;;;;;;1999.90;999.90;;;;;;;;;;4999947;28;20214;-70
2023/12/27 09:55:03;;;;;;;1999.90;999.90;;;;;;;;;;4991109;28;20350;-68
2023/12/27 09:57:49;;;;;;;1999.90;999.90;;;;;;;;;;4989694;28;20221;-69
2023/12/27 10:00:36;;;;;;;1999.90;999.90;;;;;;;;;;5000129;28;20358;-69
2023/12/27 10:03:26;;;;;;;1999.90;999.90;;;;;;;;;;4996933;28;20220;-69
2023/12/27 10:06:16;;;;;;;1999.90;999.90;;;;;;;;;;4994222;28;20341;-69
2023/12/27 10:09:03;;;;;;;1999.90;999.90;;;;;;;;;;4995640;28;20214;-69
2023/12/27 10:11:48;;;;;;;1999.90;999.90;;;;;;;;;;4995630;28;20219;-69
2023/12/27 10:14:34;;;;;;;1999.90;999.90;;;;;;;;;;4994477;28;20400;-69
2023/12/27 10:17:20;;;;;;;1999.90;999.90;;;;;;;;;;4990240;28;20202;-69
2023/12/27 10:20:06;;;;;;;1999.90;999.90;;;;;;;;;;4993717;28;20234;-70
2023/12/27 10:22:51;;;;;;;1999.90;999.90;;;;;;;;;;4996943;28;20229;-69
2023/12/27 10:25:40;;;;;;;1999.90;999.90;;;;;;;;;;5009325;28;20240;-69
2023/12/27 10:28:24;;;;;;;1999.90;999.90;;;;;;;;;;5001017;28;20207;-70
2023/12/27 10:31:09;;;;;;;1999.90;999.90;;;;;;;;;;4991764;28;20798;-68
2023/12/27 10:33:55;;;;;;;1999.90;999.90;;;;;;;;;;4993971;28;20856;-68
2023/12/27 10:36:42;;;;;;;1999.90;999.90;;;;;;;;;;4993941;28;20206;-70
2023/12/27 10:39:27;;;;;;;1999.90;999.90;;;;;;;;;;4991860;28;20304;-69
2023/12/27 10:42:16;;;;;;;1999.90;999.90;;;;;;;;;;4994692;28;20234;-69
2023/12/27 10:45:00;;;;;;;1999.90;999.90;;;;;;;;;;4995622;28;20650;-69
2023/12/27 10:47:47;;;;;;;1999.90;999.90;;;;;;;;;;4995731;28;20221;-69
2023/12/27 10:50:32;;;;;;;1999.90;999.90;;;;;;;;;;4991266;28;20310;-68
2023/12/27 10:53:19;;;;;;;1999.90;999.90;;;;;;;;;;4998508;28;20232;-69
2023/12/27 10:56:05;;;;;;;1999.90;999.90;;;;;;;;;;4976294;28;20239;-69
2023/12/27 10:58:52;;;;;;;1999.90;999.90;;;;;;;;;;4975882;28;20288;-70
2023/12/27 11:01:39;;;;;;;1999.90;999.90;;;;;;;;;;4980915;28;20704;-69
2023/12/27 11:04:24;;;;;;;1999.90;999.90;;;;;;;;;;4989635;28;20237;-69
2023/12/27 11:07:10;;;;;;;1999.90;999.90;;;;;;;;;;4991438;28;20730;-69
2023/12/27 11:09:56;;;;;;;1999.90;999.90;;;;;;;;;;4999211;28;20294;-69
2023/12/27 11:12:43;;;;;;;1999.90;999.90;;;;;;;;;;5006300;28;20702;-69
2023/12/27 11:15:30;;;;;;;1999.90;999.90;;;;;;;;;;4989237;28;20303;-70
2023/12/27 11:18:16;;;;;;;1999.90;999.90;;;;;;;;;;4997506;28;20744;-69
2023/12/27 11:21:01;;;;;;;1999.90;999.90;;;;;;;;;;5006641;28;20694;-69
2023/12/27 11:23:46;;;;;;;1999.90;999.90;;;;;;;;;;5014364;28;20706;-70
2023/12/27 11:26:34;;;;;;;1999.90;999.90;;;;;;;;;;5014847;28;20211;-69
2023/12/27 11:29:19;;;;;;;1999.90;999.90;;;;;;;;;;5010286;28;20202;-69
2023/12/27 11:32:06;;;;;;;1999.90;999.90;;;;;;;;;;4997303;28;20586;-70
2023/12/27 11:34:53;;;;;;;1999.90;999.90;;;;;;;;;;4995727;28;20250;-70
2023/12/27 11:37:40;;;;;;;1999.90;999.90;;;;;;;;;;5014630;28;20282;-70
2023/12/27 11:40:34;;;;;;;1999.90;999.90;;;;;;;;;;5013811;28;20863;-69
2023/12/27 11:43:20;;;;;;;1999.90;999.90;;;;;;;;;;4982754;28;20694;-69
2023/12/27 11:46:06;;;;;;;1999.90;999.90;;;;;;;;;;4993936;28;20215;-69
2023/12/27 11:48:54;;;;;;;1999.90;999.90;;;;;;;;;;5001549;28;20215;-70
2023/12/27 11:51:40;;;;;;;1999.90;999.90;;;;;;;;;;4996821;28;20210;-70
2023/12/27 11:54:26;;;;;;;1999.90;999.90;;;;;;;;;;4993200;28;20310;-69
2023/12/27 11:57:11;;;;;;;1999.90;999.90;;;;;;;;;;4979576;28;20296;-68
2023/12/27 11:59:56;;;;;;;1999.90;999.90;;;;;;;;;;4992707;28;20231;-69
2023/12/27 12:02:44;;;;;;;1999.90;999.90;;;;;;;;;;4991880;28;20237;-69
2023/12/27 12:05:39;;;;;;;1999.90;999.90;;;;;;;;;;4996175;28;20885;-69
2023/12/27 12:08:29;;;;;;;1999.90;999.90;;;;;;;;;;4993886;28;20274;-69
2023/12/27 12:11:14;;;;;;;1999.90;999.90;;;;;;;;;;4992051;28;20207;-69
2023/12/27 12:13:59;;;;;;;1999.90;999.90;;;;;;;;;;5001991;28;20247;-69
2023/12/27 12:16:44;;;;;;;1999.90;999.90;;;;;;;;;;4996189;28;20216;-69
2023/12/27 12:19:30;;;;;;;1999.90;999.90;;;;;;;;;;4996275;28;20331;-69
2023/12/27 12:22:17;;;;;;;1999.90;999.90;;;;;;;;;;4994154;28;20211;-69
2023/12/27 12:25:08;;;;;;;1999.90;999.90;;;;;;;;;;5000909;28;20741;-69
2023/12/27 12:27:54;;;;;;;1999.90;999.90;;;;;;;;;;4991398;28;20340;-70
2023/12/27 12:30:39;;;;;;;1999.90;999.90;;;;;;;;;;4985266;28;20215;-68
2023/12/27 12:33:24;;;;;;;1999.90;999.90;;;;;;;;;;5001732;28;20211;-69
2023/12/27 12:36:09;;;;;;;1999.90;999.90;;;;;;;;;;4996731;28;20214;-69
2023/12/27 12:38:55;;;;;;;1999.90;999.90;;;;;;;;;;4990275;28;20704;-69
2023/12/27 12:41:40;;;;;;;1999.90;999.90;;;;;;;;;;4993516;28;20230;-70
2023/12/27 12:44:26;;;;;;;1999.90;999.90;;;;;;;;;;4991007;28;20230;-69
2023/12/27 12:47:11;;;;;;;1999.90;999.90;;;;;;;;;;4990515;28;20332;-69
2023/12/27 12:49:56;;;;;;;1999.90;999.90;;;;;;;;;;4973722;28;20220;-69
2023/12/27 12:52:42;;;;;;;1999.90;999.90;;;;;;;;;;4973814;28;20278;-69
2023/12/27 12:55:29;;;;;;;1999.90;999.90;;;;;;;;;;4985624;28;20238;-69
2023/12/27 12:58:14;;;;;;;1999.90;999.90;;;;;;;;;;4993209;28;20237;-69
2023/12/27 13:01:00;;;;;;;1999.90;999.90;;;;;;;;;;4993165;28;20219;-69
2023/12/27 13:03:48;;;;;;;1999.90;999.90;;;;;;;;;;4992845;28;20215;-69
2023/12/27 13:06:33;;;;;;;1999.90;999.90;;;;;;;;;;4990738;28;20391;-69
2023/12/27 13:09:17;;;;;;;1999.90;999.90;;;;;;;;;;4993778;28;20203;-70
2023/12/27 13:12:04;;;;;;;1999.90;999.90;;;;;;;;;;4984487;28;20584;-69
2023/12/27 13:14:49;;;;;;;1999.90;999.90;;;;;;;;;;4992853;28;20281;-69
2023/12/27 13:17:34;;;;;;;1999.90;999.90;;;;;;;;;;4989027;28;20212;-69
2023/12/27 13:20:19;;;;;;;1999.90;999.90;;;;;;;;;;4992743;28;20231;-69
2023/12/27 13:23:04;;;;;;;1999.90;999.90;;;;;;;;;;4992605;28;20334;-68
2023/12/27 13:25:49;;;;;;;1999.90;999.90;;;;;;;;;;4992538;28;20231;-68
2023/12/27 13:28:35;;;;;;;1999.90;999.90;;;;;;;;;;4992035;28;20695;-69
2023/12/27 13:31:20;;;;;;;1999.90;999.90;;;;;;;;;;4992763;28;20408;-69
2023/12/27 13:34:06;;;;;;;1999.90;999.90;;;;;;;;;;4991638;28;20241;-69
2023/12/27 13:36:51;;;;;;;1999.90;999.90;;;;;;;;;;4998756;28;20222;-68
2023/12/27 13:39:36;;;;;;;1999.90;999.90;;;;;;;;;;4994677;28;20286;-69
2023/12/27 13:42:22;;;;;;;1999.90;999.90;;;;;;;;;;4993322;28;20214;-67
2023/12/27 13:45:09;;;;;;;1999.90;999.90;;;;;;;;;;5001163;28;20239;-71
2023/12/27 13:47:54;;;;;;;1999.90;999.90;;;;;;;;;;4987499;28;20211;-69
2023/12/27 13:50:39;;;;;;;1999.90;999.90;;;;;;;;;;4991086;28;20211;-68
2023/12/27 13:53:24;;;;;;;1999.90;999.90;;;;;;;;;;4988342;28;20211;-69
2023/12/27 13:56:09;;;;;;;1999.90;999.90;;;;;;;;;;4992385;28;20223;-69
2023/12/27 13:58:53;;;;;;;1999.90;999.90;;;;;;;;;;4992361;28;20218;-70
2023/12/27 14:01:40;;;;;;;1999.90;999.90;;;;;;;;;;4992340;28;20262;-70
2023/12/27 14:04:24;;;;;;;1999.90;999.90;;;;;;;;;;4988559;28;20223;-69
2023/12/27 14:07:09;;;;;;;1999.90;999.90;;;;;;;;;;4989953;28;20418;-69
2023/12/27 14:09:54;;;;;;;1999.90;999.90;;;;;;;;;;4991979;28;20207;-69
2023/12/27 14:12:42;;;;;;;1999.90;999.90;;;;;;;;;;4986252;28;20215;-69
2023/12/27 14:15:27;;;;;;;1999.90;999.90;;;;;;;;;;4990783;28;20247;-70
2023/12/27 14:18:13;;;;;;;1999.90;999.90;;;;;;;;;;4997476;28;20327;-69
2023/12/27 14:20:58;;;;;;;1999.90;999.90;;;;;;;;;;5000636;28;20234;-70
2023/12/27 14:23:43;;;;;;;1999.90;999.90;;;;;;;;;;4987515;28;20216;-70
2023/12/27 14:26:28;;;;;;;1999.90;999.90;;;;;;;;;;4976823;28;20216;-70
2023/12/27 14:29:13;;;;;;;1999.90;999.90;;;;;;;;;;4986480;28;20231;-70
2023/12/27 14:31:57;;;;;;;1999.90;999.90;;;;;;;;;;4996075;28;20698;-70
2023/12/27 14:34:44;;;;;;;1999.90;999.90;;;;;;;;;;4997704;28;20534;-70
2023/12/27 14:37:30;;;;;;;1999.90;999.90;;;;;;;;;;4992823;28;20214;-71
2023/12/27 14:40:15;;;;;;;1999.90;999.90;;;;;;;;;;4982243;28;20239;-70
2023/12/27 14:43:00;;;;;;;1999.90;999.90;;;;;;;;;;4989393;28;20593;-70
2023/12/27 14:45:45;;;;;;;1999.90;999.90;;;;;;;;;;4996980;28;20234;-70
2023/12/27 14:48:32;;;;;;;1999.90;999.90;;;;;;;;;;4997847;28;20251;-71
2023/12/27 14:51:18;;;;;;;1999.90;999.90;;;;;;;;;;5002020;28;20209;-70
2023/12/27 14:54:04;;;;;;;1999.90;999.90;;;;;;;;;;4976346;28;20236;-70
2023/12/27 14:56:49;;;;;;;1999.90;999.90;;;;;;;;;;4997946;28;20708;-69
2023/12/27 14:59:34;;;;;;;1999.90;999.90;;;;;;;;;;5001725;28;20338;-70
2023/12/27 15:02:19;;;;;;;1999.90;999.90;;;;;;;;;;5005028;28;20627;-69
2023/12/27 15:05:04;;;;;;;1999.90;999.90;;;;;;;;;;4994274;28;20730;-70
2023/12/27 15:07:51;;;;;;;1999.90;999.90;;;;;;;;;;5000786;28;20214;-70
2023/12/27 15:10:36;;;;;;;1999.90;999.90;;;;;;;;;;4993970;28;20323;-69
2023/12/27 15:13:20;;;;;;;1999.90;999.90;;;;;;;;;;4997127;28;20800;-69
2023/12/27 15:16:06;;;;;;;1999.90;999.90;;;;;;;;;;5001191;28;20269;-70
2023/12/27 15:18:51;;;;;;;1999.90;999.90;;;;;;;;;;5001666;28;20710;-70
2023/12/27 15:21:37;;;;;;;1999.90;999.90;;;;;;;;;;4988161;28;20210;-70
2023/12/27 15:24:24;;;;;;;1999.90;999.90;;;;;;;;;;4992733;28;20326;-71
2023/12/27 15:27:09;;;;;;;1999.90;999.90;;;;;;;;;;4992346;28;20699;-70
2023/12/27 15:29:57;;;;;;;1999.90;999.90;;;;;;;;;;4991955;28;20223;-69
2023/12/27 15:32:42;;;;;;;1999.90;999.90;;;;;;;;;;4995672;28;20206;-68
2023/12/27 15:35:27;;;;;;;1999.90;999.90;;;;;;;;;;4999838;28;21256;-69
2023/12/27 15:38:12;;;;;;;1999.90;999.90;;;;;;;;;;4991570;28;20213;-69
2023/12/27 15:40:58;;;;;;;1999.90;999.90;;;;;;;;;;4999214;28;20230;-69
2023/12/27 15:43:43;;;;;;;1999.90;999.90;;;;;;;;;;4988232;28;20576;-69
2023/12/27 15:46:29;;;;;;;1999.90;999.90;;;;;;;;;;4994810;28;20216;-69
2023/12/27 15:49:14;;;;;;;1999.90;999.90;;;;;;;;;;5002020;28;20222;-70
2023/12/27 15:51:59;;;;;;;1999.90;999.90;;;;;;;;;;4997158;28;20213;-69
2023/12/27 15:54:44;;;;;;;1999.90;999.90;;;;;;;;;;4992969;28;20226;-69
2023/12/27 15:57:31;;;;;;;1999.90;999.90;;;;;;;;;;4987507;28;20203;-69
2023/12/27 16:00:16;;;;;;;1999.90;999.90;;;;;;;;;;4994721;28;20357;-69
2023/12/27 16:03:04;;;;;;;1999.90;999.90;;;;;;;;;;4993677;28;20410;-69
2023/12/27 16:05:49;;;;;;;1999.90;999.90;;;;;;;;;;4997090;28;20235;-70
2023/12/27 16:08:34;;;;;;;1999.90;999.90;;;;;;;;;;4989631;28;20253;-69
2023/12/27 16:11:19;;;;;;;1999.90;999.90;;;;;;;;;;4978945;28;20215;-70
2023/12/27 16:14:05;;;;;;;1999.90;999.90;;;;;;;;;;4985731;28;20710;-69
2023/12/27 16:16:50;;;;;;;1999.90;999.90;;;;;;;;;;4998608;28;20622;-70
2023/12/27 16:19:37;;;;;;;1999.90;999.90;;;;;;;;;;5006507;28;20210;-69
2023/12/27 16:22:22;;;;;;;1999.90;999.90;;;;;;;;;;4994219;28;20293;-70
2023/12/27 16:25:07;;;;;;;1999.90;999.90;;;;;;;;;;4990511;28;20280;-70
2023/12/27 16:27:56;;;;;;;1999.90;999.90;;;;;;;;;;5013078;28;20210;-69
2023/12/27 16:30:43;;;;;;;1999.90;999.90;;;;;;;;;;5010545;28;20913;-69
2023/12/27 16:33:28;;;;;;;1999.90;999.90;;;;;;;;;;4982720;28;20208;-69
2023/12/27 16:36:13;;;;;;;1999.90;999.90;;;;;;;;;;4982837;28;20261;-69
2023/12/27 16:38:58;;;;;;;1999.90;999.90;;;;;;;;;;5001830;28;20216;-69
2023/12/27 16:41:46;;;;;;;1999.90;999.90;;;;;;;;;;4998512;28;20605;-69
2023/12/27 16:44:31;;;;;;;1999.90;999.90;;;;;;;;;;5003709;28;20611;-69
2023/12/27 16:47:17;;;;;;;1999.90;999.90;;;;;;;;;;5010746;28;20213;-69
2023/12/27 16:50:02;;;;;;;1999.90;999.90;;;;;;;;;;4999693;28;20298;-69
2023/12/27 16:52:47;;;;;;;1999.90;999.90;;;;;;;;;;4994691;28;20211;-69
2023/12/27 16:55:33;;;;;;;1999.90;999.90;;;;;;;;;;5004168;28;20257;-70
2023/12/27 16:58:18;;;;;;;1999.90;999.90;;;;;;;;;;5007290;28;20218;-71